Airfield :
LOGIN :

Register | Disclaimer

   EN    FR    IT 

 










Legend :    VFR   Marginal VFR   IFR   Intensive IFR   Very Intensive IFR
Visi :
Ceiling :
>= 8 km
>= 3000ft
5 to 8 km
1000 to 3000 ft
1500m to 5 km
500 to 1000 ft
800 to 1500m
200 to 500 ft
< 800m
< 200 ft
Symbols :   Thunderstorms  Fog  Heavy snow  Heavy precipitations  Wind > 20 kt
SIGMETs :     Misc.  Thunderstorms  Icing  Turbulence  Mountain Waves  Volcanic Ashes






- Airport Elevation : 121 ft
- IATA code : HUY


EGNJ - Humberside

CURRENT METAR :
  • 010750Z 35005KT 7000 VCSH FEW006 SCT018 BKN027 15/14 Q1011

EXPIRED METARs :
  • 010720Z VRB03KT 7000 VCSH FEW006 SCT018 BKN027 14/13 Q1010
  • 010650Z 00000KT 7000 -SHRA FEW008 SCT017 BKN022 14/13 Q1010
  • 010620Z AUTO 06004KT 9999 FEW009/// BKN014/// BKN019/// 14/13 Q1010 RERA
  • 010550Z AUTO 04006KT 3000 +DZ BKN004/// BKN008/// OVC025/// 14/13 Q1010

TAF AMD TAF EGNJ
Valid from the 01 at 06:00 until the 01 at 15:00 UTC


010554Z 0106/0115 03006KT 9999 FEW008 SCT015
TEMPO 0106/0109 6000 RA BKN008
PROB30
TEMPO 0106/0108 2500 +RADZ BKN004
PROB30
TEMPO 0109/0115 8000 -SHRA
ATIS : +44 1652 682 020



MET'MAP, your aeronautical weather chart ! - Copyright ORBIFLY December 2007 - Disclaimer

ORBIFLY MET'MAP TEAM :

Programming & Development : Alexandra Zaïnal
Concept & original design : Baudouin d'Aumeries
Assistance for programming : Marc-Olivier Méhu
Technical & hardware support : Manuel Goepfert

Contact : metmap@orbifly.com




SOURCES & CREDITS :

   NOAA